Broadmoor, Illinois
Current Conditions -  °F | °C
As of 11:35 PM on Friday 24 Oct 2014 (Local Time) from KC75 Reporting Station
Overcast Overcast  
Wind Chill: 60°   Ceiling: 4100
Heat Index: 60°   Visibility: 10mi
Dew Point: 51°   Wind: 5mph
Humidity: 72%   Direction: 220°SW
Pressure: 29.94"   Gusts: NA
Location:  41.1472°N, 89.6399°W
Report Text: KC75 250435Z AUTO 22004KT 10SM SCT034 BKN041 OVC048 15/10 A2994 RMK AO2 T01530103
Loading
Personal Weather Stations






























Interactive Weather Map
Tropical Storm Tracking
New forecast layout! Learn more

10-Day Weather Forecast

Advertisements
Track Severe Weather on mobile